Time;durP1;ratioP1;P1;durP2;ratioP2;P2;SDS_P1;SDS_P2;PMS_P1;PMS_P2;Temp;Humidity;BMP_temperature;BMP_pressure;BME280_temperature;BME280_humidity;BME280_pressure;Samples;Min_cycle;Max_cycle;Signal;HPM_P1;HPM_P2
2023/07/13 00:01:27;;;;;;;6.50;4.30;;;19.70;87.20;;;18.84;100.00;95949.03;4996324;28;20121;-68
2023/07/13 00:03:52;;;;;;;6.90;4.50;;;19.70;87.10;;;18.84;100.00;95955.19;4977680;28;20444;-69
2023/07/13 00:06:20;;;;;;;8.15;4.57;;;19.70;87.00;;;18.86;100.00;95952.25;4972876;28;20193;-68
2023/07/13 00:08:47;;;;;;;6.38;3.95;;;19.80;87.00;;;18.87;100.00;95945.88;4978821;28;20158;-68
2023/07/13 00:11:13;;;;;;;5.28;4.03;;;19.80;86.80;;;18.87;100.00;95938.69;4993517;28;20061;-69
2023/07/13 00:13:39;;;;;;;11.05;3.95;;;19.80;86.80;;;18.87;100.00;95933.34;4979351;28;20703;-69
2023/07/13 00:16:05;;;;;;;6.05;4.05;;;19.90;86.50;;;18.90;100.00;95932.88;4972223;28;20158;-69
2023/07/13 00:18:30;;;;;;;6.60;3.80;;;19.90;86.40;;;18.92;100.00;95930.75;4976877;28;20830;-68
2023/07/13 00:21:04;;;;;;;7.13;3.58;;;20.00;86.20;;;18.93;100.00;95942.22;4968048;28;20062;-70
2023/07/13 00:23:33;;;;;;;5.95;3.85;;;20.00;86.10;;;18.96;100.00;95929.22;4972936;28;20105;-68
2023/07/13 00:26:00;;;;;;;5.65;4.18;;;20.00;86.20;;;18.97;100.00;95928.16;4978275;28;20417;-68
2023/07/13 00:28:26;;;;;;;8.32;4.10;;;20.00;86.10;;;19.00;100.00;95942.03;4991002;28;20802;-68
2023/07/13 00:30:52;;;;;;;7.45;3.75;;;20.10;86.10;;;19.02;100.00;95939.97;4993778;28;20034;-69
2023/07/13 00:33:17;;;;;;;5.15;3.95;;;20.00;86.10;;;19.03;100.00;95936.25;4965475;28;20537;-69
2023/07/13 00:35:43;;;;;;;4.80;3.47;;;20.10;86.10;;;19.04;100.00;95933.34;4992320;28;20125;-69
2023/07/13 00:38:09;;;;;;;6.65;4.05;;;20.10;85.80;;;19.02;100.00;95931.97;4997362;28;20533;-68
2023/07/13 00:40:35;;;;;;;8.18;3.67;;;20.00;85.60;;;19.04;100.00;95937.84;4994950;28;20030;-69
2023/07/13 00:43:01;;;;;;;8.38;3.97;;;20.00;85.70;;;19.01;100.00;95943.66;4979787;28;21020;-69
2023/07/13 00:45:27;;;;;;;5.93;3.75;;;20.00;85.80;;;19.01;100.00;95938.31;4992424;28;20113;-69
2023/07/13 00:47:53;;;;;;;4.50;3.53;;;20.00;85.80;;;19.01;100.00;95936.50;4994758;28;20525;-70
2023/07/13 00:50:20;;;;;;;5.13;3.40;;;20.10;85.60;;;19.00;100.00;95939.38;4963445;28;20530;-69
2023/07/13 00:52:49;;;;;;;4.53;3.28;;;20.00;85.60;;;19.01;100.00;95938.31;4977478;28;20044;-68
2023/07/13 00:55:15;;;;;;;6.28;3.63;;;20.00;85.40;;;19.00;100.00;95936.72;4978119;28;20123;-68
2023/07/13 00:57:41;;;;;;;7.25;3.60;;;20.00;85.30;;;19.01;100.00;95941.81;4976936;28;20044;-68
2023/07/13 01:00:08;;;;;;;7.15;3.80;;;20.10;85.40;;;19.01;100.00;95938.31;4962562;28;20069;-68
2023/07/13 01:02:38;;;;;;;5.18;3.38;;;20.10;85.40;;;19.04;100.00;95948.53;4976397;28;20079;-69
2023/07/13 01:05:11;;;;;;;6.80;3.70;;;20.10;85.20;;;19.05;100.00;95942.13;4962618;28;20763;-69
2023/07/13 01:07:37;;;;;;;4.70;3.95;;;20.20;85.20;;;19.06;100.00;95941.09;4979312;28;20030;-68
2023/07/13 01:10:04;;;;;;;9.25;3.80;;;20.20;85.00;;;19.09;100.00;95929.94;4963279;28;20037;-69
2023/07/13 01:12:30;;;;;;;6.15;3.95;;;20.20;85.10;;;19.10;100.00;95920.88;4979229;28;20030;-68
2023/07/13 01:15:00;;;;;;;6.60;3.97;;;20.20;85.00;;;19.10;100.00;95924.34;4979684;28;20039;-71
2023/07/13 01:17:26;;;;;;;7.80;4.30;;;20.20;84.70;;;19.09;100.00;95917.41;4994113;28;20111;-68
2023/07/13 01:19:51;;;;;;;5.45;3.75;;;20.20;84.90;;;19.07;100.00;95921.38;4963640;28;20030;-69
2023/07/13 01:22:18;;;;;;;7.72;3.67;;;20.10;84.90;;;19.04;100.00;95916.53;4988003;28;20141;-69
2023/07/13 01:24:46;;;;;;;5.53;3.70;;;20.10;85.30;;;19.05;100.00;95918.16;4977041;28;20044;-68
2023/07/13 01:27:15;;;;;;;6.72;3.60;;;20.10;85.40;;;19.05;100.00;95918.16;4974834;28;20679;-68
2023/07/13 01:29:42;;;;;;;6.68;4.00;;;20.10;85.10;;;19.05;100.00;95918.94;4976229;28;20525;-69
2023/07/13 01:32:10;;;;;;;9.02;3.97;;;20.20;85.00;;;19.09;100.00;95927.25;4976737;28;20125;-69
2023/07/13 01:34:36;;;;;;;5.72;3.80;;;20.30;85.40;;;19.10;100.00;95910.22;4979848;28;20034;-68
2023/07/13 01:37:07;;;;;;;7.53;4.00;;;20.20;85.10;;;19.12;100.00;95919.56;4977148;28;20042;-69
2023/07/13 01:39:33;;;;;;;6.50;4.22;;;20.20;85.00;;;19.12;100.00;95911.56;4980172;28;20030;-69
2023/07/13 01:41:58;;;;;;;6.82;3.53;;;20.20;84.90;;;19.11;100.00;95917.97;4974869;28;20066;-69
2023/07/13 01:44:25;;;;;;;5.03;3.50;;;20.10;84.90;;;19.08;100.00;95920.31;4977007;28;20030;-69
2023/07/13 01:46:51;;;;;;;5.22;3.50;;;20.10;84.80;;;19.03;100.00;95925.59;4974753;28;20034;-68
2023/07/13 01:49:17;;;;;;;6.82;3.45;;;20.00;85.10;;;18.98;100.00;95919.09;4977641;28;20127;-68
2023/07/13 01:51:43;;;;;;;4.13;3.30;;;20.00;85.10;;;18.93;100.00;95916.38;4975520;28;20112;-69
2023/07/13 01:54:08;;;;;;;5.03;3.22;;;19.80;85.10;;;18.91;100.00;95923.81;4976443;28;20137;-68
2023/07/13 01:56:34;;;;;;;5.68;3.53;;;19.80;84.80;;;18.82;100.00;95911.97;4975078;28;20821;-69
2023/07/13 01:59:00;;;;;;;4.95;3.25;;;19.70;85.20;;;18.77;100.00;95925.19;4959904;28;20840;-69
2023/07/13 02:01:26;;;;;;;4.47;3.30;;;19.60;85.40;;;18.71;100.00;95928.84;4960621;28;20062;-68
2023/07/13 02:03:51;;;;;;;7.10;3.17;;;19.60;85.60;;;18.67;100.00;95915.22;4967590;28;20030;-69
2023/07/13 02:06:17;;;;;;;7.25;3.60;;;19.60;85.70;;;18.66;100.00;95921.59;4975326;28;20447;-68
2023/07/13 02:08:43;;;;;;;4.82;3.15;;;19.60;85.80;;;18.68;100.00;95921.34;4977737;28;20217;-69
2023/07/13 02:11:09;;;;;;;4.93;3.40;;;19.60;85.60;;;18.65;100.00;95924.50;4979580;28;20125;-69
2023/07/13 02:13:34;;;;;;;5.38;4.05;;;19.60;85.90;;;18.65;100.00;95924.50;4996879;28;20034;-69
2023/07/13 02:16:00;;;;;;;6.15;4.03;;;19.60;85.80;;;18.61;100.00;95929.47;4998019;28;20120;-70
2023/07/13 02:18:26;;;;;;;6.25;3.70;;;19.60;85.80;;;18.63;100.00;95923.94;4976997;28;20138;-68
2023/07/13 02:20:52;;;;;;;8.05;3.80;;;19.70;85.80;;;18.64;100.00;95922.91;4996906;28;20034;-69
2023/07/13 02:23:18;;;;;;;7.00;3.55;;;19.70;85.70;;;18.64;100.00;95912.22;4971293;28;20058;-69
2023/07/13 02:25:44;;;;;;;7.45;4.05;;;19.70;85.80;;;18.64;100.00;95917.56;4999725;28;20030;-69
2023/07/13 02:28:10;;;;;;;6.60;3.90;;;19.70;85.80;;;18.65;100.00;95908.53;4974213;28;20030;-69
2023/07/13 02:30:36;;;;;;;5.63;3.83;;;19.70;85.80;;;18.61;100.00;95915.34;4964350;28;20065;-69
2023/07/13 02:33:02;;;;;;;7.30;4.30;;;19.70;85.80;;;18.60;100.00;95919.06;4977660;28;20034;-69
2023/07/13 02:35:27;;;;;;;7.97;4.55;;;19.70;85.90;;;18.58;100.00;95926.50;4997162;28;20144;-69
2023/07/13 02:37:53;;;;;;;10.38;4.63;;;19.60;85.90;;;18.57;100.00;95938.22;4967098;28;20115;-70
2023/07/13 02:40:19;;;;;;;9.75;5.38;;;19.60;86.40;;;18.57;100.00;95954.19;4966742;28;20226;-71
2023/07/13 02:42:45;;;;;;;6.57;4.88;;;19.60;86.40;;;18.58;100.00;95950.47;4987821;28;20130;-69
2023/07/13 02:45:12;;;;;;;6.97;4.68;;;19.60;86.30;;;18.57;100.00;95948.88;4991771;28;20672;-70
2023/07/13 02:47:39;;;;;;;8.10;4.85;;;19.60;86.40;;;18.57;100.00;95959.53;4990412;28;20130;-69
2023/07/13 02:50:05;;;;;;;10.55;4.40;;;19.60;86.50;;;18.58;100.00;95961.13;4979589;28;20100;-69
2023/07/13 02:52:31;;;;;;;8.65;4.88;;;19.70;86.50;;;18.58;100.00;95959.28;4994369;28;20238;-69
2023/07/13 02:54:57;;;;;;;9.35;4.65;;;19.70;86.60;;;18.60;100.00;95964.38;4973161;28;20065;-70
2023/07/13 02:57:23;;;;;;;8.23;4.68;;;19.60;86.70;;;18.60;100.00;95967.84;4976948;28;20053;-69
2023/07/13 02:59:49;;;;;;;7.63;4.97;;;19.60;86.80;;;18.61;100.00;95965.97;4976993;28;20688;-70
2023/07/13 03:02:15;;;;;;;9.18;5.03;;;19.60;86.90;;;18.60;100.00;95967.03;4974174;28;21714;-69
2023/07/13 03:04:41;;;;;;;6.93;5.53;;;19.60;86.90;;;18.60;100.00;95962.50;4966926;28;20030;-69
2023/07/13 03:07:07;;;;;;;7.38;5.13;;;19.60;86.90;;;18.58;100.00;95956.63;4975903;28;20133;-69
2023/07/13 03:09:33;;;;;;;8.18;5.50;;;19.60;87.10;;;18.57;100.00;95956.84;4996556;28;20502;-68
2023/07/13 03:11:59;;;;;;;9.27;5.32;;;19.60;87.00;;;18.57;100.00;95948.88;4998342;28;20042;-69
2023/07/13 03:14:25;;;;;;;8.40;6.03;;;19.60;87.10;;;18.57;100.00;95959.53;4975376;28;20077;-69
2023/07/13 03:16:51;;;;;;;12.18;6.15;;;19.60;86.90;;;18.58;100.00;95956.63;4980477;28;20080;-69
2023/07/13 03:19:17;;;;;;;7.10;6.00;;;19.60;86.70;;;18.56;100.00;95957.91;4973693;28;20125;-70
2023/07/13 03:21:43;;;;;;;10.05;6.10;;;19.50;86.90;;;18.55;100.00;95966.91;4998319;28;20463;-70
2023/07/13 03:24:09;;;;;;;10.50;6.60;;;19.60;87.00;;;18.54;100.00;95971.44;4974490;28;20030;-69
2023/07/13 03:26:34;;;;;;;9.82;6.00;;;19.60;87.00;;;18.54;100.00;95970.63;4976213;28;20215;-69
2023/07/13 03:29:00;;;;;;;6.93;5.93;;;19.50;86.90;;;18.52;100.00;95980.72;4993515;28;20120;-69
2023/07/13 03:31:28;;;;;;;12.68;8.35;;;19.50;87.10;;;18.49;100.00;95974.03;4981459;28;20121;-68
2023/07/13 03:33:55;;;;;;;9.57;6.50;;;19.50;87.10;;;18.49;100.00;95975.88;4996893;28;20076;-67
2023/07/13 03:36:26;;;;;;;10.20;6.38;;;19.60;87.10;;;18.50;100.00;95980.97;4916396;28;20386;-68
2023/07/13 03:38:55;;;;;;;7.18;5.53;;;19.60;86.90;;;18.50;100.00;95975.66;4880532;28;20447;-67
2023/07/13 03:41:29;;;;;;;7.82;5.82;;;19.60;86.60;;;18.53;100.00;95982.34;4976405;23;20055;-73
2023/07/13 03:43:55;;;;;;;7.18;6.00;;;19.60;86.70;;;18.51;100.00;95981.78;4995403;23;20657;-65
2023/07/13 03:46:21;;;;;;;12.15;9.02;;;19.50;86.70;;;18.50;100.00;95982.81;4883921;28;20259;-63
2023/07/13 03:48:47;;;;;;;25.75;21.05;;;19.50;86.70;;;18.51;100.00;95979.13;4874592;28;20034;-63
2023/07/13 03:51:15;;;;;;;11.68;8.73;;;19.60;86.80;;;18.51;100.00;95979.13;4868278;28;20773;-62
2023/07/13 03:53:42;;;;;;;8.68;6.00;;;19.60;86.30;;;18.49;100.00;95971.38;4913143;28;20530;-62
2023/07/13 03:56:08;;;;;;;7.78;5.70;;;19.60;86.40;;;18.49;100.00;95983.88;4872391;28;20046;-63
2023/07/13 03:58:39;;;;;;;14.80;9.90;;;19.60;86.50;;;18.49;100.00;95984.69;4867630;28;20320;-61
2023/07/13 04:01:06;;;;;;;12.48;8.80;;;19.50;86.50;;;18.50;100.00;95982.81;4909708;28;20034;-62
2023/07/13 04:03:33;;;;;;;7.65;5.88;;;19.60;86.30;;;18.50;100.00;95985.50;4919542;28;20026;-62
2023/07/13 04:06:27;;;;;;;7.55;5.70;;;19.60;85.80;;;18.53;100.00;95990.34;4986830;23;20057;-68
2023/07/13 04:08:56;;;;;;;10.65;5.45;;;19.60;85.50;;;18.51;100.00;95993.25;4974398;28;20121;-69
2023/07/13 04:11:24;;;;;;;9.07;5.45;;;19.60;85.80;;;18.51;100.00;95989.78;4989814;28;20044;-69
2023/07/13 04:13:53;;;;;;;11.80;7.97;;;19.60;85.80;;;18.52;100.00;95996.72;4957864;28;20128;-68
2023/07/13 04:16:19;;;;;;;7.50;5.70;;;19.60;85.70;;;18.48;100.00;95993.72;4986216;23;20626;-68
2023/07/13 04:18:46;;;;;;;8.15;5.68;;;19.60;85.70;;;18.48;100.00;96006.22;4920674;28;20549;-68
2023/07/13 04:21:13;;;;;;;6.25;4.97;;;19.60;85.90;;;18.47;100.00;96002.75;4875841;28;20482;-69
2023/07/13 04:23:39;;;;;;;6.10;5.20;;;19.50;85.80;;;18.48;100.00;95998.25;4924971;28;20388;-70
2023/07/13 04:26:06;;;;;;;10.27;5.25;;;19.60;85.90;;;18.49;100.00;95999.84;4870117;28;20810;-69
2023/07/13 04:28:32;;;;;;;9.32;5.97;;;19.60;85.60;;;18.50;100.00;96002.28;4856736;28;20491;-70
2023/07/13 04:31:00;;;;;;;10.95;8.00;;;19.60;85.40;;;18.50;100.00;96002.28;4892962;28;20303;-70
2023/07/13 04:33:27;;;;;;;8.70;6.20;;;19.70;85.50;;;18.53;100.00;96014.31;4875555;28;20558;-69
2023/07/13 04:35:57;;;;;;;8.07;5.45;;;19.60;85.20;;;18.53;100.00;96022.28;4881626;28;20327;-67
2023/07/13 04:38:30;;;;;;;6.80;5.22;;;19.60;85.20;;;18.54;100.00;96018.59;4877111;28;20514;-68
2023/07/13 04:41:00;;;;;;;7.57;4.45;;;19.70;85.50;;;18.51;100.00;96024.41;4864836;28;20886;-69
2023/07/13 04:43:27;;;;;;;9.30;4.53;;;19.60;85.40;;;18.47;100.00;96017.94;4863219;28;20547;-68
2023/07/13 04:45:53;;;;;;;8.30;4.82;;;19.60;85.30;;;18.47;100.00;96023.28;4873574;28;20442;-69
2023/07/13 04:48:19;;;;;;;7.57;4.90;;;19.60;85.50;;;18.48;100.00;96024.88;4873620;28;20661;-68
2023/07/13 04:50:46;;;;;;;6.43;4.78;;;19.60;85.50;;;18.46;100.00;96021.66;4866890;28;20631;-69
2023/07/13 04:53:12;;;;;;;6.80;4.30;;;19.60;85.50;;;18.45;100.00;96023.50;4885910;28;20388;-69
2023/07/13 04:55:38;;;;;;;7.20;4.72;;;19.60;85.00;;;18.45;100.00;96031.50;4876281;28;20483;-68
2023/07/13 04:58:04;;;;;;;8.80;4.57;;;19.60;85.20;;;18.47;100.00;96033.91;4852230;28;20317;-70
2023/07/13 05:00:30;;;;;;;5.55;4.75;;;19.60;85.00;;;18.47;100.00;96034.72;4887507;28;20889;-68
2023/07/13 05:02:57;;;;;;;6.90;4.25;;;19.60;84.60;;;18.47;100.00;96040.06;4940918;28;20115;-67
2023/07/13 05:05:23;;;;;;;5.72;4.20;;;19.60;85.00;;;18.49;100.00;96042.47;4978559;28;20038;-68
2023/07/13 05:07:49;;;;;;;7.43;4.35;;;19.60;84.70;;;18.46;100.00;96042.97;4987499;28;20517;-70
2023/07/13 05:10:15;;;;;;;5.55;4.20;;;19.60;85.10;;;18.47;100.00;96050.72;4990809;28;20037;-68
2023/07/13 05:12:41;;;;;;;9.88;4.10;;;19.60;84.90;;;18.47;100.00;96057.88;5004836;28;20445;-68
2023/07/13 05:15:07;;;;;;;9.80;4.38;;;19.60;84.70;;;18.46;100.00;96049.09;4973631;28;20140;-68
2023/07/13 05:17:33;;;;;;;7.35;4.28;;;19.60;84.70;;;18.47;100.00;96049.91;4980984;28;20066;-71
2023/07/13 05:19:58;;;;;;;4.70;4.10;;;19.60;84.90;;;18.50;100.00;96052.09;5012654;28;20796;-72
2023/07/13 05:22:24;;;;;;;13.82;4.57;;;19.70;84.60;;;18.53;100.00;96054.25;4962018;28;20223;-68
2023/07/13 05:24:50;;;;;;;7.07;4.32;;;19.70;84.50;;;18.55;100.00;96052.16;4983416;28;20072;-68
2023/07/13 05:27:15;;;;;;;9.85;4.50;;;19.80;84.50;;;18.56;100.00;96065.28;4995948;28;20124;-68
2023/07/13 05:29:41;;;;;;;7.22;4.70;;;19.70;84.40;;;18.58;100.00;96059.69;4997232;28;20030;-67
2023/07/13 05:32:07;;;;;;;7.22;4.32;;;19.70;84.30;;;18.60;100.00;96060.28;4994960;28;20120;-70
2023/07/13 05:34:33;;;;;;;5.95;4.28;;;19.80;83.80;;;18.60;100.00;96053.09;4974166;28;20152;-68
2023/07/13 05:36:58;;;;;;;15.05;9.38;;;19.80;84.00;;;18.63;100.00;96046.50;5000447;28;20109;-71
2023/07/13 05:39:26;;;;;;;9.45;5.60;;;19.80;83.90;;;18.63;100.00;96049.97;4967828;28;20441;-70
2023/07/13 05:41:51;;;;;;;8.52;6.40;;;19.80;83.80;;;18.65;100.00;96052.38;4980715;28;20641;-69
2023/07/13 05:44:18;;;;;;;7.65;4.47;;;19.90;83.90;;;18.65;100.00;96052.38;4983514;28;20104;-69
2023/07/13 05:46:44;;;;;;;7.20;4.32;;;19.90;83.90;;;18.66;100.00;96054.00;4969520;28;20037;-69
2023/07/13 05:49:10;;;;;;;7.35;4.03;;;19.90;83.60;;;18.67;100.00;96050.28;4999446;28;20061;-69
2023/07/13 05:51:35;;;;;;;12.25;3.85;;;20.00;83.50;;;18.69;100.00;96047.38;5016339;28;20226;-69
2023/07/13 05:54:01;;;;;;;8.70;4.05;;;20.10;82.80;;;18.73;100.00;96046.66;4999179;28;20808;-70
2023/07/13 05:56:27;;;;;;;9.63;4.13;;;20.20;82.70;;;18.80;100.00;96050.00;5009438;28;20592;-68
2023/07/13 05:58:52;;;;;;;7.10;3.97;;;20.40;82.40;;;18.90;100.00;96054.66;4999390;28;20066;-70
2023/07/13 06:01:20;;;;;;;7.95;3.70;;;20.60;81.80;;;19.04;100.00;96063.16;4999879;28;20532;-71
2023/07/13 06:03:46;;;;;;;6.18;3.60;;;20.80;81.10;;;19.21;100.00;96062.06;5003072;28;20045;-68
2023/07/13 06:06:12;;;;;;;8.82;3.42;;;21.10;81.10;;;19.41;100.00;96056.22;5001735;28;20041;-70
2023/07/13 06:08:38;;;;;;;6.53;3.63;;;21.30;79.80;;;19.64;100.00;96065.09;4960924;28;20704;-69
2023/07/13 06:11:22;;;;;;;5.85;3.25;;;21.60;78.80;;;19.90;100.00;96072.38;5018391;28;20033;-69
2023/07/13 06:13:48;;;;;;;9.18;3.42;;;21.90;78.80;;;20.04;100.00;96070.97;4981691;28;20038;-67
2023/07/13 06:16:14;;;;;;;8.38;3.20;;;21.80;77.00;;;20.19;100.00;96079.16;4998247;28;20580;-68
2023/07/13 06:18:40;;;;;;;6.60;3.55;;;22.00;76.00;;;20.32;100.00;96080.63;4982324;28;20034;-67
2023/07/13 06:21:14;;;;;;;5.72;2.88;;;22.10;76.30;;;20.47;100.00;96080.03;4951956;28;20088;-68
2023/07/13 06:23:40;;;;;;;6.63;2.58;;;22.40;74.30;;;20.62;100.00;96076.72;4979805;28;20140;-70
2023/07/13 06:26:06;;;;;;;6.25;2.42;;;22.60;72.60;;;20.73;100.00;96083.75;4965050;28;20103;-68
2023/07/13 06:28:33;;;;;;;6.05;2.35;;;22.60;72.10;;;20.85;100.00;96076.38;4981566;28;20026;-70
2023/07/13 06:30:59;;;;;;;5.22;2.60;;;22.70;69.90;;;21.02;100.00;96068.22;4999953;28;20457;-70
2023/07/13 06:33:25;;;;;;;4.93;2.50;;;23.10;70.20;;;21.21;100.00;96072.13;4977516;28;20022;-69
2023/07/13 06:35:51;;;;;;;5.43;2.53;;;23.30;68.60;;;21.38;100.00;96074.69;4998951;28;20513;-69
2023/07/13 06:38:16;;;;;;;5.10;2.25;;;23.60;67.00;;;21.62;100.00;96086.59;4999287;28;20042;-68
2023/07/13 06:40:42;;;;;;;7.78;1.98;;;23.90;65.00;;;21.80;100.00;96093.41;4992781;28;20154;-72
2023/07/13 06:43:08;;;;;;;5.10;2.50;;;24.00;65.60;;;21.93;100.00;96097.47;5013213;28;20425;-69
2023/07/13 06:45:45;;;;;;;3.72;1.95;;;23.80;62.70;;;21.94;95.05;96094.53;4975925;28;20026;-68
2023/07/13 06:48:11;;;;;;;6.22;1.90;;;23.60;64.00;;;21.94;97.65;96099.09;4968913;28;20037;-68
2023/07/13 06:50:37;;;;;;;5.97;2.40;;;23.60;63.40;;;21.94;95.75;96099.88;5014149;28;20048;-68
2023/07/13 06:53:03;;;;;;;7.60;2.10;;;23.50;63.20;;;21.88;93.76;96100.94;4985103;28;20041;-68
2023/07/13 06:55:28;;;;;;;7.95;2.30;;;23.40;62.80;;;21.83;93.64;96102.78;4999546;28;20108;-68
2023/07/13 06:57:54;;;;;;;4.90;2.13;;;23.30;63.80;;;21.79;92.90;96110.53;5000607;28;20477;-69
2023/07/13 07:00:20;;;;;;;4.85;1.77;;;23.40;63.10;;;21.75;92.37;96117.47;5019676;28;20624;-70
2023/07/13 07:02:46;;;;;;;4.32;1.92;;;23.20;64.10;;;21.71;92.29;96116.38;4965857;28;20551;-68
2023/07/13 07:05:11;;;;;;;3.58;1.70;;;23.20;64.10;;;21.68;90.62;96111.53;5003399;28;20120;-70
2023/07/13 07:07:37;;;;;;;3.85;2.10;;;23.20;63.00;;;21.65;91.43;96120.06;5003807;28;20111;-68
2023/07/13 07:10:03;;;;;;;5.57;2.30;;;23.30;63.90;;;21.66;91.16;96113.66;5001168;28;20037;-72
2023/07/13 07:12:29;;;;;;;3.55;1.80;;;23.30;63.80;;;21.70;91.81;96117.44;4984072;28;20030;-72
2023/07/13 07:14:55;;;;;;;4.78;2.10;;;23.50;63.70;;;21.80;90.41;96120.19;4997745;28;20148;-70
2023/07/13 07:17:20;;;;;;;6.90;2.13;;;23.70;61.50;;;21.91;89.12;96113.81;5000277;28;20145;-71
2023/07/13 07:19:46;;;;;;;5.00;2.17;;;23.80;61.50;;;21.96;90.20;96124.56;4967588;28;20052;-70
2023/07/13 07:22:12;;;;;;;6.57;2.50;;;23.80;62.60;;;21.98;88.81;96110.91;4984178;28;20117;-70
2023/07/13 07:24:37;;;;;;;4.57;2.10;;;23.50;61.80;;;21.93;89.20;96119.69;4982397;28;20068;-68
2023/07/13 07:27:04;;;;;;;5.53;2.20;;;23.50;64.20;;;21.86;88.81;96118.34;5004033;28;20065;-72
2023/07/13 07:29:29;;;;;;;3.47;2.00;;;23.20;63.60;;;21.78;86.77;96116.97;4980935;28;20042;-67
2023/07/13 07:31:55;;;;;;;5.22;2.20;;;23.10;62.00;;;21.70;85.33;96128.13;4986645;28;20176;-68
2023/07/13 07:34:21;;;;;;;5.07;2.30;;;23.00;61.90;;;21.62;86.81;96123.28;5004209;28;20154;-69
2023/07/13 07:36:46;;;;;;;4.15;2.08;;;23.00;62.70;;;21.59;85.89;96123.78;4986396;28;20073;-69
2023/07/13 07:39:12;;;;;;;6.05;2.58;;;22.90;62.90;;;21.56;86.18;96124.31;5012647;28;20039;-70
2023/07/13 07:41:38;;;;;;;4.25;2.00;;;23.00;62.90;;;21.54;86.68;96131.78;5018191;28;20112;-70
2023/07/13 07:44:04;;;;;;;4.00;2.15;;;23.10;63.20;;;;;;4984494;28;20129;-70
2023/07/13 07:46:29;;;;;;;6.18;1.90;;;23.10;63.10;;;;;;5022436;28;20133;-70
2023/07/13 07:48:55;;;;;;;5.82;2.15;;;23.10;63.70;;;;;;5006880;28;20040;-70
2023/07/13 07:51:21;;;;;;;4.38;1.90;;;23.10;63.80;;;21.57;87.27;96133.97;4995709;28;20341;-69
2023/07/13 07:53:47;;;;;;;4.30;2.10;;;23.00;63.80;;;21.60;87.98;96146.81;4967885;28;20064;-70
2023/07/13 07:56:13;;;;;;;7.15;2.22;;;23.10;63.80;;;21.61;87.70;96143.09;5000433;28;20030;-67
2023/07/13 07:58:39;;;;;;;4.47;1.90;;;23.20;63.20;;;21.61;87.10;96146.56;4983158;28;20056;-66
2023/07/13 08:01:05;;;;;;;5.68;1.92;;;23.10;63.30;;;21.54;85.98;96142.50;5001587;28;20122;-67
2023/07/13 08:03:31;;;;;;;6.03;2.03;;;22.90;62.70;;;21.48;86.09;96148.84;4986111;28;20037;-65
2023/07/13 08:05:56;;;;;;;4.05;1.80;;;22.70;63.40;;;21.42;85.84;96160.59;4986943;28;20026;-67
2023/07/13 08:08:22;;;;;;;5.32;1.80;;;22.60;63.90;;;21.29;86.46;96162.66;5004851;28;20415;-68
2023/07/13 08:10:48;;;;;;;7.25;1.90;;;22.40;65.10;;;21.24;87.10;96159.91;4981827;28;20057;-68
2023/07/13 08:13:14;;;;;;;4.60;1.67;;;22.40;66.20;;;21.20;87.87;96174.03;5001909;28;20065;-68
2023/07/13 08:15:40;;;;;;;5.85;3.88;;;22.50;65.50;;;21.14;87.96;96175.84;4999622;28;20133;-69
2023/07/13 08:18:07;;;;;;;9.27;5.22;;;22.40;65.60;;;21.08;87.54;96182.22;5001251;28;20046;-67
2023/07/13 08:20:33;;;;;;;3.38;2.00;;;22.30;65.30;;;21.02;87.24;96186.69;4968135;28;20043;-69
2023/07/13 08:22:59;;;;;;;4.43;1.90;;;22.30;65.00;;;20.99;88.01;96183.72;4989100;28;20834;-68
2023/07/13 08:25:24;;;;;;;3.42;1.98;;;22.20;65.50;;;20.91;87.51;96182.31;4960935;28;20492;-67
2023/07/13 08:27:50;;;;;;;5.00;1.95;;;22.10;65.10;;;20.82;86.87;96189.19;4954926;28;20484;-69
2023/07/13 08:30:16;;;;;;;5.20;2.20;;;22.10;64.60;;;20.79;87.43;96187.78;5000567;28;22724;-68
2023/07/13 08:32:42;;;;;;;9.02;2.13;;;22.10;65.10;;;20.79;86.97;96189.66;4997749;28;20402;-69
2023/07/13 08:35:08;;;;;;;4.47;1.58;;;22.10;64.90;;;20.83;85.98;96192.66;4983309;28;20069;-70
2023/07/13 08:37:34;;;;;;;3.58;1.63;;;22.20;63.20;;;20.85;85.00;96195.91;4995623;28;20640;-69
2023/07/13 08:39:59;;;;;;;6.53;1.88;;;22.30;63.40;;;20.89;85.62;96202.34;4977316;28;20044;-68
2023/07/13 08:42:34;;;;;;;3.75;1.77;;;22.40;63.80;;;20.97;83.02;96192.00;4982872;28;20053;-70
2023/07/13 08:45:44;;;;;;;3.83;1.85;;;22.60;61.60;;;21.04;81.02;96181.09;5009242;28;20057;-72
2023/07/13 08:48:35;;;;;;;3.78;1.88;;;22.60;61.00;;;21.14;83.40;96188.44;4994706;28;20463;-70
2023/07/13 08:51:29;;;;;;;6.13;1.63;;;22.90;62.30;;;21.25;82.21;96188.28;4993333;28;20041;-67
2023/07/13 08:54:00;;;;;;;5.15;1.67;;;22.90;61.30;;;21.31;83.13;96197.19;4995238;28;20140;-69
2023/07/13 08:56:28;;;;;;;5.80;1.67;;;22.90;62.20;;;21.32;82.91;96204.94;4982762;28;20040;-70
2023/07/13 08:59:14;;;;;;;4.72;1.70;;;22.70;61.60;;;21.30;78.57;96191.03;4980994;28;20030;-73
2023/07/13 09:02:08;;;;;;;7.68;2.00;;;22.60;60.10;;;21.30;79.38;96195.56;4996006;28;20029;-70
2023/07/13 09:05:01;;;;;;;4.60;2.08;;;22.70;60.70;;;21.26;75.97;96195.25;5001962;28;20104;-69
2023/07/13 09:08:11;;;;;;;3.78;1.88;;;22.60;58.70;;;21.28;76.15;96187.78;4999993;28;20037;-72
2023/07/13 09:10:45;;;;;;;;;;;22.70;59.30;;;21.22;76.60;96194.09;4992389;28;20556;-67
2023/07/13 09:13:51;;;;;;;4.43;1.67;;;22.60;59.30;;;21.29;77.47;96189.41;4983825;28;19921;-68
2023/07/13 09:16:17;;;;;;;4.22;1.38;;;22.90;59.50;;;21.36;79.68;96194.53;4978258;28;20855;-67
2023/07/13 09:18:54;;;;;;;4.60;1.60;;;23.00;59.30;;;21.46;77.31;96191.13;4985525;28;20151;-66
2023/07/13 09:21:28;;;;;;;3.40;2.08;;;23.20;58.80;;;21.54;76.03;96190.69;4982193;28;20064;-66
2023/07/13 09:23:55;;;;;;;8.18;3.25;;;23.30;58.40;;;21.62;77.37;96192.88;4993921;28;20109;-67
2023/07/13 09:26:23;;;;;;;6.88;4.57;;;23.30;57.20;;;21.79;77.53;96193.53;4968720;28;20088;-69
2023/07/13 09:28:59;;;;;;;8.73;1.85;;;23.80;57.60;;;21.97;74.34;96190.47;4981749;28;20030;-68
2023/07/13 09:31:33;;;;;;;5.40;1.50;;;24.00;56.70;;;22.08;73.55;96190.53;4983505;28;20067;-68
2023/07/13 09:33:59;;;;;;;6.68;1.50;;;24.00;55.50;;;22.14;74.52;96192.16;4970494;28;20045;-68
2023/07/13 09:36:31;;;;;;;6.30;1.45;;;24.00;55.20;;;22.27;72.10;96183.69;4990408;28;20089;-68
2023/07/13 09:39:29;;;;;;;4.32;1.70;;;24.30;54.50;;;22.49;70.61;96175.47;4979640;28;20037;-70
2023/07/13 09:42:01;;;;;;;11.57;1.48;;;24.70;53.30;;;22.79;70.85;96177.44;4982363;28;20041;-67
2023/07/13 09:44:57;;;;;;;6.35;1.60;;;25.20;52.40;;;23.09;66.32;96166.81;4980251;28;20038;-65
2023/07/13 09:47:26;;;;;;;5.72;1.42;;;25.60;50.00;;;23.26;69.33;96184.53;4970690;28;20283;-72
2023/07/13 09:50:03;;;;;;;5.88;1.90;;;25.60;50.50;;;23.37;66.03;96168.19;4956666;28;20048;-71
2023/07/13 09:52:49;;;;;;;5.13;1.60;;;25.60;50.20;;;23.43;65.00;96169.78;5000272;28;20124;-71
2023/07/13 09:55:40;;;;;;;2.47;1.30;;;25.50;50.00;;;23.51;63.54;96166.56;5008742;28;20176;-68
2023/07/13 09:58:16;;;;;;;5.53;1.50;;;25.60;50.00;;;23.61;65.33;96164.97;4983293;28;20180;-66
2023/07/13 10:00:43;;;;;;;7.28;1.60;;;25.90;49.60;;;23.75;65.82;96172.19;4962485;28;20263;-68
2023/07/13 10:03:29;;;;;;;4.32;1.65;;;26.10;48.30;;;23.85;62.41;96165.22;4962503;28;20356;-70
2023/07/13 10:05:55;;;;;;;4.05;1.63;;;25.90;49.00;;;23.88;65.46;96176.22;4915428;28;20339;-70
2023/07/13 10:08:30;;;;;;;7.53;1.75;;;26.00;48.50;;;23.96;63.07;96169.47;4886665;28;20181;-70
2023/07/13 10:11:10;;;;;;;4.20;3.45;;;26.00;49.00;;;23.96;60.66;96156.06;4875030;28;20455;-71
2023/07/13 10:13:42;;;;;;;4.22;2.38;;;25.70;47.80;;;23.97;63.10;96173.78;4879582;28;20349;-71
2023/07/13 10:16:08;;;;;;;7.13;4.72;;;25.80;48.50;;;23.98;62.33;96176.19;4870262;28;20322;-70
2023/07/13 10:18:49;;;;;;;3.92;1.67;;;25.80;47.60;;;24.07;58.99;96144.22;4885764;28;20231;-69
2023/07/13 10:21:18;;;;;;;5.63;1.50;;;26.10;46.30;;;24.34;62.47;96178.84;4884435;28;20482;-65